Hlavní strana
METAR-TAF:

METAR-TAF

Letiště :

Broken Hill, Austrálie

zeměpisná šířka: 32-00-06S, zeměpisná délka: 141-28-18E, výška: 292 m

Aktuální stav počasí

Zpráva byla vytvořena před 55 minutami, v 03:00 UTC
Jihojihovýchodní vítr 8 kt
Teplota 20°C
Vlhkost vzduchu 40%
Tlak 1022 hPa
Viditelnost 10 km a více

METAR: YBHI 070300Z AUTO 16008KT 9999 // NCD 20/06 Q1022

Čas: 13:25 (03:55 UTC)


TAF: chybějící

Stav a předpovědi počasí z více než 4 000 letišť (zprávy METAR a TAF).

Červené a žluté tečky na mapě představují dostupné meteorologické stanice.

Když kurzor umístíte na tečku, zobrazí se název stanice.

Pak kliknutím zobrazíte stav a předpověď počasí.

Chcete-li změnit mapu, kliknutím na zelené tlačítko se znaménkem +mapu přiblížíte, kliknutím na zelené tlačítko se znaménkem – mapu oddálíte a kliknutím na zelené šipky přejdete na sousední mapy.


METAR-TAF: